sensor_id;sensor_type;location;lat;lon;timestamp;pressure;altitude;pressure_sealevel;temperature;humidity
68525;BME280;55524;51.380;13.372;2022-08-11T00:01:16;101354.88;;;16.70;58.85
68525;BME280;55524;51.380;13.372;2022-08-11T00:03:46;101360.44;;;16.66;58.32
68525;BME280;55524;51.380;13.372;2022-08-11T00:06:14;101362.25;;;16.65;58.33
68525;BME280;55524;51.380;13.372;2022-08-11T00:08:41;101376.44;;;16.66;61.15
68525;BME280;55524;51.380;13.372;2022-08-11T00:11:09;101377.53;;;16.62;60.61
68525;BME280;55524;51.380;13.372;2022-08-11T00:13:38;101384.69;;;16.61;61.50
68525;BME280;55524;51.380;13.372;2022-08-11T00:16:10;101386.41;;;16.62;62.60
68525;BME280;55524;51.380;13.372;2022-08-11T00:18:38;101368.44;;;16.66;59.79
68525;BME280;55524;51.380;13.372;2022-08-11T00:21:05;101377.53;;;16.62;59.32
68525;BME280;55524;51.380;13.372;2022-08-11T00:23:32;101381.28;;;16.58;60.03
68525;BME280;55524;51.380;13.372;2022-08-11T00:25:59;101384.81;;;16.58;61.73
68525;BME280;55524;51.380;13.372;2022-08-11T00:28:26;101378.84;;;16.53;59.92
68525;BME280;55524;51.380;13.372;2022-08-11T00:30:53;101374.81;;;16.44;60.43
68525;BME280;55524;51.380;13.372;2022-08-11T00:33:19;101379.50;;;16.39;60.71
68525;BME280;55524;51.380;13.372;2022-08-11T00:35:48;101394.78;;;16.36;63.11
68525;BME280;55524;51.380;13.372;2022-08-11T00:38:16;101391.16;;;16.18;62.33
68525;BME280;55524;51.380;13.372;2022-08-11T00:40:52;101370.22;;;16.09;59.61
68525;BME280;55524;51.380;13.372;2022-08-11T00:51:46;101381.41;;;15.78;62.33
68525;BME280;55524;51.380;13.372;2022-08-11T01:05:01;101386.91;;;15.53;64.15
68525;BME280;55524;51.380;13.372;2022-08-11T01:28:52;101393.34;;;15.47;65.28
68525;BME280;55524;51.380;13.372;2022-08-11T01:39:27;101393.66;;;15.39;66.40
68525;BME280;55524;51.380;13.372;2022-08-11T01:53:11;101375.34;;;14.42;63.60
68525;BME280;55524;51.380;13.372;2022-08-11T02:03:35;101373.75;;;14.38;67.31
68525;BME280;55524;51.380;13.372;2022-08-11T02:06:14;101375.47;;;14.39;66.79
68525;BME280;55524;51.380;13.372;2022-08-11T02:11:27;101384.13;;;14.44;66.49
68525;BME280;55524;51.380;13.372;2022-08-11T02:19:29;101376.59;;;14.34;73.27
68525;BME280;55524;51.380;13.372;2022-08-11T02:30:26;101383.66;;;13.86;73.81
68525;BME280;55524;51.380;13.372;2022-08-11T02:33:07;101380.59;;;13.72;72.18
68525;BME280;55524;51.380;13.372;2022-08-11T02:35:47;101383.47;;;13.66;73.51
68525;BME280;55524;51.380;13.372;2022-08-11T02:46:22;101398.06;;;13.79;75.81
68525;BME280;55524;51.380;13.372;2022-08-11T02:54:06;101388.78;;;13.91;72.50
68525;BME280;55524;51.380;13.372;2022-08-11T03:07:22;101393.66;;;14.03;78.13
68525;BME280;55524;51.380;13.372;2022-08-11T03:15:29;101389.53;;;13.69;74.57
68525;BME280;55524;51.380;13.372;2022-08-11T03:18:22;101387.75;;;13.70;75.20
68525;BME280;55524;51.380;13.372;2022-08-11T03:21:00;101385.50;;;13.58;73.32
68525;BME280;55524;51.380;13.372;2022-08-11T03:26:27;101396.44;;;13.22;74.28
68525;BME280;55524;51.380;13.372;2022-08-11T03:34:17;101394.09;;;13.13;74.92
68525;BME280;55524;51.380;13.372;2022-08-11T03:49:54;101395.75;;;12.89;75.94
68525;BME280;55524;51.380;13.372;2022-08-11T03:52:25;101380.78;;;12.86;73.59
68525;BME280;55524;51.380;13.372;2022-08-11T04:00:38;101381.69;;;12.85;74.51
68525;BME280;55524;51.380;13.372;2022-08-11T04:06:28;101386.00;;;12.89;75.84
68525;BME280;55524;51.380;13.372;2022-08-11T04:14:10;101386.38;;;13.05;77.24
68525;BME280;55524;51.380;13.372;2022-08-11T04:22:32;101371.53;;;12.71;71.43
68525;BME280;55524;51.380;13.372;2022-08-11T04:25:06;101386.28;;;12.80;75.24
68525;BME280;55524;51.380;13.372;2022-08-11T04:30:27;101395.28;;;12.74;73.98
68525;BME280;55524;51.380;13.372;2022-08-11T04:33:01;101398.69;;;12.79;74.64
68525;BME280;55524;51.380;13.372;2022-08-11T04:41:12;101393.38;;;13.08;73.71
68525;BME280;55524;51.380;13.372;2022-08-11T04:46:27;101397.97;;;13.31;75.22
68525;BME280;55524;51.380;13.372;2022-08-11T04:58:16;101393.81;;;13.73;75.30
68525;BME280;55524;51.380;13.372;2022-08-11T05:07:24;101384.72;;;13.81;72.02
68525;BME280;55524;51.380;13.372;2022-08-11T05:12:56;101392.56;;;14.09;71.30
68525;BME280;55524;51.380;13.372;2022-08-11T05:16:08;101403.38;;;14.27;73.24
68525;BME280;55524;51.380;13.372;2022-08-11T05:18:50;101410.53;;;14.50;75.19
68525;BME280;55524;51.380;13.372;2022-08-11T05:21:35;101409.09;;;14.65;74.63
68525;BME280;55524;51.380;13.372;2022-08-11T05:27:09;101400.69;;;14.98;71.87
68525;BME280;55524;51.380;13.372;2022-08-11T05:29:56;101402.56;;;15.18;72.06
68525;BME280;55524;51.380;13.372;2022-08-11T05:32:44;101396.31;;;15.39;70.06
68525;BME280;55524;51.380;13.372;2022-08-11T05:35:42;101397.69;;;15.49;70.92
68525;BME280;55524;51.380;13.372;2022-08-11T05:38:17;101398.13;;;15.59;71.24
68525;BME280;55524;51.380;13.372;2022-08-11T05:41:04;101405.72;;;15.70;71.50
68525;BME280;55524;51.380;13.372;2022-08-11T05:43:50;101401.41;;;15.88;69.53
68525;BME280;55524;51.380;13.372;2022-08-11T05:46:39;101386.97;;;16.12;67.66
68525;BME280;55524;51.380;13.372;2022-08-11T05:49:25;101398.88;;;16.24;68.71
68525;BME280;55524;51.380;13.372;2022-08-11T05:52:13;101389.38;;;16.37;68.20
68525;BME280;55524;51.380;13.372;2022-08-11T05:55:03;101402.00;;;16.53;69.13
68525;BME280;55524;51.380;13.372;2022-08-11T05:57:48;101394.22;;;16.67;67.59
68525;BME280;55524;51.380;13.372;2022-08-11T06:00:20;101391.78;;;16.81;65.92
68525;BME280;55524;51.380;13.372;2022-08-11T06:02:50;101391.75;;;17.00;64.70
68525;BME280;55524;51.380;13.372;2022-08-11T06:05:20;101373.47;;;17.10;64.21
68525;BME280;55524;51.380;13.372;2022-08-11T06:07:47;101394.22;;;17.22;65.62
68525;BME280;55524;51.380;13.372;2022-08-11T06:10:15;101375.41;;;17.42;63.51
68525;BME280;55524;51.380;13.372;2022-08-11T06:12:51;101388.91;;;17.57;64.24
68525;BME280;55524;51.380;13.372;2022-08-11T06:15:18;101377.44;;;17.72;61.68
68525;BME280;55524;51.380;13.372;2022-08-11T06:17:45;101379.50;;;17.84;62.92
68525;BME280;55524;51.380;13.372;2022-08-11T06:20:12;101373.16;;;18.03;61.72
68525;BME280;55524;51.380;13.372;2022-08-11T06:23:00;101377.47;;;18.05;62.09
68525;BME280;55524;51.380;13.372;2022-08-11T06:25:52;101388.06;;;18.24;62.94
68525;BME280;55524;51.380;13.372;2022-08-11T06:28:28;101376.53;;;18.39;61.64
68525;BME280;55524;51.380;13.372;2022-08-11T06:30:58;101368.34;;;18.58;60.23
68525;BME280;55524;51.380;13.372;2022-08-11T06:33:37;101375.03;;;18.83;60.32
68525;BME280;55524;51.380;13.372;2022-08-11T06:36:54;101382.19;;;18.98;60.39
68525;BME280;55524;51.380;13.372;2022-08-11T06:39:28;101373.00;;;19.18;59.05
68525;BME280;55524;51.380;13.372;2022-08-11T06:42:00;101383.25;;;19.26;60.23
68525;BME280;55524;51.380;13.372;2022-08-11T06:44:42;101379.97;;;19.36;58.93
68525;BME280;55524;51.380;13.372;2022-08-11T06:47:10;101349.13;;;19.74;56.14
68525;BME280;55524;51.380;13.372;2022-08-11T06:49:45;101348.28;;;19.87;55.93
68525;BME280;55524;51.380;13.372;2022-08-11T06:55:37;101336.06;;;20.39;53.96
68525;BME280;55524;51.380;13.372;2022-08-11T06:58:27;101349.72;;;20.36;56.12
68525;BME280;55524;51.380;13.372;2022-08-11T07:01:14;101343.66;;;20.47;54.71
68525;BME280;55524;51.380;13.372;2022-08-11T07:03:43;101321.97;;;20.64;53.20
68525;BME280;55524;51.380;13.372;2022-08-11T07:09:23;101351.56;;;20.91;55.01
68525;BME280;55524;51.380;13.372;2022-08-11T07:15:41;101321.16;;;21.43;51.47
68525;BME280;55524;51.380;13.372;2022-08-11T07:18:23;101319.13;;;21.72;50.58
68525;BME280;55524;51.380;13.372;2022-08-11T07:21:30;101311.81;;;21.87;50.95
68525;BME280;55524;51.380;13.372;2022-08-11T07:24:28;101309.53;;;22.06;49.98
68525;BME280;55524;51.380;13.372;2022-08-11T07:27:14;101299.41;;;22.23;48.37
68525;BME280;55524;51.380;13.372;2022-08-11T07:30:04;101306.56;;;22.48;49.13
68525;BME280;55524;51.380;13.372;2022-08-11T07:32:46;101287.19;;;22.67;47.22
68525;BME280;55524;51.380;13.372;2022-08-11T07:38:19;101283.13;;;23.44;46.93
68525;BME280;55524;51.380;13.372;2022-08-11T07:41:18;101257.78;;;23.69;43.18
68525;BME280;55524;51.380;13.372;2022-08-11T07:44:07;101246.94;;;24.03;42.29
68525;BME280;55524;51.380;13.372;2022-08-11T07:49:43;101232.25;;;25.15;40.39
68525;BME280;55524;51.380;13.372;2022-08-11T07:52:37;101232.09;;;25.58;40.64
68525;BME280;55524;51.380;13.372;2022-08-11T07:55:06;101222.69;;;25.93;38.85
68525;BME280;55524;51.380;13.372;2022-08-11T07:57:36;101218.88;;;26.05;38.50
68525;BME280;55524;51.380;13.372;2022-08-11T08:00:21;101213.50;;;26.24;37.89
68525;BME280;55524;51.380;13.372;2022-08-11T08:03:09;101217.25;;;26.43;38.38
68525;BME280;55524;51.380;13.372;2022-08-11T08:05:53;101211.41;;;26.96;36.95
68525;BME280;55524;51.380;13.372;2022-08-11T08:08:58;101201.44;;;26.87;37.10
68525;BME280;55524;51.380;13.372;2022-08-11T08:11:43;101202.53;;;27.04;35.40
68525;BME280;55524;51.380;13.372;2022-08-11T08:14:31;101188.84;;;26.95;34.50
68525;BME280;55524;51.380;13.372;2022-08-11T08:17:19;101198.97;;;27.32;35.04
68525;BME280;55524;51.380;13.372;2022-08-11T08:20:07;101192.56;;;27.61;35.19
68525;BME280;55524;51.380;13.372;2022-08-11T08:22:36;101186.22;;;27.70;34.29
68525;BME280;55524;51.380;13.372;2022-08-11T08:25:33;101188.78;;;27.34;34.28
68525;BME280;55524;51.380;13.372;2022-08-11T08:28:04;101186.50;;;27.77;33.47
68525;BME280;55524;51.380;13.372;2022-08-11T08:30:40;101181.72;;;27.51;35.26
68525;BME280;55524;51.380;13.372;2022-08-11T08:33:33;101193.03;;;27.46;35.05
68525;BME280;55524;51.380;13.372;2022-08-11T08:36:17;101184.50;;;27.69;33.39
68525;BME280;55524;51.380;13.372;2022-08-11T08:38:59;101184.66;;;27.77;33.82
68525;BME280;55524;51.380;13.372;2022-08-11T08:41:29;101189.31;;;28.12;33.99
68525;BME280;55524;51.380;13.372;2022-08-11T08:44:16;101173.63;;;28.24;33.42
68525;BME280;55524;51.380;13.372;2022-08-11T08:47:04;101176.84;;;28.37;32.70
68525;BME280;55524;51.380;13.372;2022-08-11T08:49:37;101167.84;;;28.37;32.18
68525;BME280;55524;51.380;13.372;2022-08-11T08:55:01;101156.78;;;28.38;31.94
68525;BME280;55524;51.380;13.372;2022-08-11T08:57:51;101167.13;;;28.07;32.74
68525;BME280;55524;51.380;13.372;2022-08-11T09:00:28;101169.59;;;28.46;32.61
68525;BME280;55524;51.380;13.372;2022-08-11T09:03:15;101164.94;;;28.56;31.92
68525;BME280;55524;51.380;13.372;2022-08-11T09:05:44;101154.22;;;28.37;31.00
68525;BME280;55524;51.380;13.372;2022-08-11T09:08:17;101149.72;;;28.46;30.75
68525;BME280;55524;51.380;13.372;2022-08-11T09:11:07;101133.53;;;28.62;30.42
68525;BME280;55524;51.380;13.372;2022-08-11T09:13:52;101153.03;;;28.75;31.66
68525;BME280;55524;51.380;13.372;2022-08-11T09:16:19;101139.16;;;29.04;30.42
68525;BME280;55524;51.380;13.372;2022-08-11T09:18:47;101132.19;;;29.36;29.20
68525;BME280;55524;51.380;13.372;2022-08-11T09:21:14;101132.06;;;28.93;29.88
68525;BME280;55524;51.380;13.372;2022-08-11T09:23:41;101134.91;;;29.62;29.13
68525;BME280;55524;51.380;13.372;2022-08-11T09:26:27;101149.25;;;28.50;31.90
68525;BME280;55524;51.380;13.372;2022-08-11T09:29:15;101148.34;;;29.63;29.96
68525;BME280;55524;51.380;13.372;2022-08-11T09:31:41;101141.72;;;29.66;29.46
68525;BME280;55524;51.380;13.372;2022-08-11T09:34:09;101131.88;;;29.81;29.41
68525;BME280;55524;51.380;13.372;2022-08-11T09:36:39;101147.66;;;30.20;30.89
68525;BME280;55524;51.380;13.372;2022-08-11T09:42:29;101126.19;;;29.58;28.45
68525;BME280;55524;51.380;13.372;2022-08-11T09:45:24;101127.22;;;29.65;29.11
68525;BME280;55524;51.380;13.372;2022-08-11T09:48:16;101121.84;;;29.82;27.94
68525;BME280;55524;51.380;13.372;2022-08-11T09:53:37;101123.50;;;29.67;28.01
68525;BME280;55524;51.380;13.372;2022-08-11T09:56:05;101132.66;;;29.65;29.08
68525;BME280;55524;51.380;13.372;2022-08-11T09:58:50;101119.59;;;29.35;29.67
68525;BME280;55524;51.380;13.372;2022-08-11T10:01:19;101114.28;;;29.68;28.03
68525;BME280;55524;51.380;13.372;2022-08-11T10:03:55;101113.31;;;28.64;29.49
68525;BME280;55524;51.380;13.372;2022-08-11T10:06:25;101117.38;;;28.86;29.08
68525;BME280;55524;51.380;13.372;2022-08-11T10:09:11;101107.13;;;28.54;29.54
68525;BME280;55524;51.380;13.372;2022-08-11T10:11:44;101106.06;;;28.47;29.91
68525;BME280;55524;51.380;13.372;2022-08-11T10:14:11;101111.88;;;29.64;30.06
68525;BME280;55524;51.380;13.372;2022-08-11T10:16:56;101104.00;;;29.19;30.87
68525;BME280;55524;51.380;13.372;2022-08-11T10:19:23;101105.16;;;28.90;30.07
68525;BME280;55524;51.380;13.372;2022-08-11T10:21:50;101100.50;;;29.69;29.11
68525;BME280;55524;51.380;13.372;2022-08-11T10:24:57;101099.41;;;30.21;29.38
68525;BME280;55524;51.380;13.372;2022-08-11T10:30:30;101088.72;;;28.48;29.91
68525;BME280;55524;51.380;13.372;2022-08-11T10:33:15;101093.78;;;28.43;30.45
68525;BME280;55524;51.380;13.372;2022-08-11T10:36:03;101103.53;;;28.54;31.31
68525;BME280;55524;51.380;13.372;2022-08-11T10:38:42;101092.75;;;28.88;30.56
68525;BME280;55524;51.380;13.372;2022-08-11T10:41:12;101086.72;;;29.71;28.96
68525;BME280;55524;51.380;13.372;2022-08-11T10:43:57;101065.97;;;30.02;28.47
68525;BME280;55524;51.380;13.372;2022-08-11T10:46:30;101073.44;;;29.76;28.52
68525;BME280;55524;51.380;13.372;2022-08-11T10:49:16;101074.44;;;28.98;30.13
68525;BME280;55524;51.380;13.372;2022-08-11T10:51:46;101084.00;;;28.76;30.26
68525;BME280;55524;51.380;13.372;2022-08-11T10:54:32;101094.88;;;27.41;31.62
68525;BME280;55524;51.380;13.372;2022-08-11T10:57:26;101086.28;;;27.74;31.32
68525;BME280;55524;51.380;13.372;2022-08-11T11:00:12;101088.31;;;28.25;31.60
68525;BME280;55524;51.380;13.372;2022-08-11T11:02:43;101068.13;;;28.28;29.84
68525;BME280;55524;51.380;13.372;2022-08-11T11:08:08;101070.56;;;29.01;28.71
68525;BME280;55524;51.380;13.372;2022-08-11T11:10:55;101060.25;;;29.55;29.00
68525;BME280;55524;51.380;13.372;2022-08-11T11:13:28;101053.56;;;30.41;27.68
68525;BME280;55524;51.380;13.372;2022-08-11T11:16:13;101050.31;;;30.70;27.12
68525;BME280;55524;51.380;13.372;2022-08-11T11:19:00;101036.34;;;30.32;26.54
68525;BME280;55524;51.380;13.372;2022-08-11T11:21:29;101040.03;;;30.72;26.68
68525;BME280;55524;51.380;13.372;2022-08-11T11:26:48;101030.19;;;30.54;26.96
68525;BME280;55524;51.380;13.372;2022-08-11T11:32:19;101019.44;;;30.69;26.54
68525;BME280;55524;51.380;13.372;2022-08-11T11:37:57;101030.50;;;30.59;27.37
68525;BME280;55524;51.380;13.372;2022-08-11T11:40:23;101019.59;;;30.76;26.66
68525;BME280;55524;51.380;13.372;2022-08-11T11:42:50;101023.03;;;30.61;27.02
68525;BME280;55524;51.380;13.372;2022-08-11T11:45:27;101011.22;;;30.69;26.45
68525;BME280;55524;51.380;13.372;2022-08-11T11:48:12;101019.84;;;31.05;26.99
68525;BME280;55524;51.380;13.372;2022-08-11T11:50:41;100994.91;;;31.08;24.79
68525;BME280;55524;51.380;13.372;2022-08-11T11:53:08;101011.50;;;31.38;26.85
68525;BME280;55524;51.380;13.372;2022-08-11T11:55:36;100999.25;;;31.34;24.75
68525;BME280;55524;51.380;13.372;2022-08-11T11:58:23;100996.53;;;30.86;26.01
68525;BME280;55524;51.380;13.372;2022-08-11T12:01:17;101012.78;;;30.55;26.43
68525;BME280;55524;51.380;13.372;2022-08-11T12:03:45;101006.03;;;30.99;25.97
68525;BME280;55524;51.380;13.372;2022-08-11T12:06:32;100994.41;;;30.00;26.21
68525;BME280;55524;51.380;13.372;2022-08-11T12:09:02;101002.69;;;30.89;25.72
68525;BME280;55524;51.380;13.372;2022-08-11T12:11:29;100997.81;;;31.69;26.04
68525;BME280;55524;51.380;13.372;2022-08-11T12:14:33;101000.47;;;31.86;25.96
68525;BME280;55524;51.380;13.372;2022-08-11T12:17:28;100995.03;;;30.59;25.48
68525;BME280;55524;51.380;13.372;2022-08-11T12:20:07;100991.34;;;31.39;25.82
68525;BME280;55524;51.380;13.372;2022-08-11T12:22:34;100987.56;;;31.09;25.05
68525;BME280;55524;51.380;13.372;2022-08-11T12:25:19;100977.69;;;30.36;26.15
68525;BME280;55524;51.380;13.372;2022-08-11T12:28:07;100976.16;;;30.09;25.86
68525;BME280;55524;51.380;13.372;2022-08-11T12:30:34;100991.44;;;30.67;27.92
68525;BME280;55524;51.380;13.372;2022-08-11T12:33:06;100985.38;;;29.16;27.79
68525;BME280;55524;51.380;13.372;2022-08-11T12:35:50;100980.53;;;30.75;26.59
68525;BME280;55524;51.380;13.372;2022-08-11T12:38:38;100964.97;;;30.84;25.22
68525;BME280;55524;51.380;13.372;2022-08-11T12:41:08;100960.09;;;30.47;25.15
68525;BME280;55524;51.380;13.372;2022-08-11T12:43:53;100959.84;;;31.20;25.03
68525;BME280;55524;51.380;13.372;2022-08-11T12:46:42;100960.03;;;30.71;26.06
68525;BME280;55524;51.380;13.372;2022-08-11T12:49:29;100962.47;;;31.45;25.54
68525;BME280;55524;51.380;13.372;2022-08-11T12:52:18;100953.84;;;31.33;25.22
68525;BME280;55524;51.380;13.372;2022-08-11T12:58:08;100929.28;;;31.94;24.65
68525;BME280;55524;51.380;13.372;2022-08-11T13:00:57;100923.69;;;31.87;23.79
68525;BME280;55524;51.380;13.372;2022-08-11T13:03:41;100932.84;;;30.94;25.28
68525;BME280;55524;51.380;13.372;2022-08-11T13:06:26;100938.66;;;31.53;24.81
68525;BME280;55524;51.380;13.372;2022-08-11T13:08:56;100920.31;;;31.62;24.29
68525;BME280;55524;51.380;13.372;2022-08-11T13:11:26;100931.09;;;32.01;24.69
68525;BME280;55524;51.380;13.372;2022-08-11T13:14:12;100925.47;;;31.34;24.21
68525;BME280;55524;51.380;13.372;2022-08-11T13:16:48;100909.91;;;31.80;23.75
68525;BME280;55524;51.380;13.372;2022-08-11T13:19:32;100906.78;;;32.06;23.26
68525;BME280;55524;51.380;13.372;2022-08-11T13:22:05;100909.78;;;31.74;24.11
68525;BME280;55524;51.380;13.372;2022-08-11T13:24:49;100905.53;;;31.71;24.39
68525;BME280;55524;51.380;13.372;2022-08-11T13:27:17;100911.97;;;32.01;23.92
68525;BME280;55524;51.380;13.372;2022-08-11T13:29:43;100893.84;;;32.00;22.10
68525;BME280;55524;51.380;13.372;2022-08-11T13:32:12;100888.88;;;31.81;22.55
68525;BME280;55524;51.380;13.372;2022-08-11T13:34:53;100891.78;;;32.17;23.12
68525;BME280;55524;51.380;13.372;2022-08-11T13:37:20;100887.66;;;32.36;22.42
68525;BME280;55524;51.380;13.372;2022-08-11T13:39:47;100882.81;;;32.38;23.09
68525;BME280;55524;51.380;13.372;2022-08-11T13:42:16;100889.81;;;31.50;22.79
68525;BME280;55524;51.380;13.372;2022-08-11T13:44:46;100894.25;;;30.97;23.57
68525;BME280;55524;51.380;13.372;2022-08-11T13:47:15;100904.13;;;31.98;24.84
68525;BME280;55524;51.380;13.372;2022-08-11T13:49:51;100882.09;;;31.54;23.24
68525;BME280;55524;51.380;13.372;2022-08-11T13:52:18;100874.03;;;31.98;22.86
68525;BME280;55524;51.380;13.372;2022-08-11T13:54:46;100877.03;;;30.97;23.46
68525;BME280;55524;51.380;13.372;2022-08-11T13:57:15;100878.47;;;31.62;23.26
68525;BME280;55524;51.380;13.372;2022-08-11T13:59:46;100872.84;;;31.09;22.75
68525;BME280;55524;51.380;13.372;2022-08-11T14:02:26;100871.22;;;31.92;22.94
68525;BME280;55524;51.380;13.372;2022-08-11T14:05:07;100861.28;;;31.30;22.39
68525;BME280;55524;51.380;13.372;2022-08-11T14:07:48;100863.28;;;31.97;23.25
68525;BME280;55524;51.380;13.372;2022-08-11T14:10:21;100865.91;;;31.52;23.13
68525;BME280;55524;51.380;13.372;2022-08-11T14:12:59;100847.75;;;30.43;22.91
68525;BME280;55524;51.380;13.372;2022-08-11T14:15:47;100870.84;;;30.63;23.55
68525;BME280;55524;51.380;13.372;2022-08-11T14:18:32;100850.50;;;31.37;22.33
68525;BME280;55524;51.380;13.372;2022-08-11T14:21:02;100851.59;;;32.18;21.48
68525;BME280;55524;51.380;13.372;2022-08-11T14:23:49;100849.81;;;32.25;21.31
68525;BME280;55524;51.380;13.372;2022-08-11T14:26:25;100835.03;;;31.81;21.20
68525;BME280;55524;51.380;13.372;2022-08-11T14:31:37;100823.66;;;31.40;21.18
68525;BME280;55524;51.380;13.372;2022-08-11T14:34:06;100826.75;;;31.37;21.02
68525;BME280;55524;51.380;13.372;2022-08-11T14:36:38;100836.22;;;32.02;21.50
68525;BME280;55524;51.380;13.372;2022-08-11T14:39:09;100833.00;;;31.98;20.98
68525;BME280;55524;51.380;13.372;2022-08-11T14:41:42;100833.25;;;31.28;22.13
68525;BME280;55524;51.380;13.372;2022-08-11T14:44:27;100825.22;;;31.72;20.41
68525;BME280;55524;51.380;13.372;2022-08-11T14:47:13;100818.25;;;31.70;19.42
68525;BME280;55524;51.380;13.372;2022-08-11T14:49:40;100821.66;;;30.80;20.54
68525;BME280;55524;51.380;13.372;2022-08-11T14:52:12;100824.81;;;31.61;19.92
68525;BME280;55524;51.380;13.372;2022-08-11T14:54:44;100815.09;;;31.96;19.34
68525;BME280;55524;51.380;13.372;2022-08-11T14:57:39;100812.81;;;32.14;19.01
68525;BME280;55524;51.380;13.372;2022-08-11T15:00:09;100805.22;;;32.39;19.35
68525;BME280;55524;51.380;13.372;2022-08-11T15:02:55;100815.09;;;32.40;20.25
68525;BME280;55524;51.380;13.372;2022-08-11T15:05:58;100811.63;;;31.64;20.86
68525;BME280;55524;51.380;13.372;2022-08-11T15:08:50;100808.25;;;31.39;19.78
68525;BME280;55524;51.380;13.372;2022-08-11T15:11:20;100812.56;;;31.10;21.09
68525;BME280;55524;51.380;13.372;2022-08-11T15:14:06;100805.25;;;31.34;19.45
68525;BME280;55524;51.380;13.372;2022-08-11T15:16:33;100798.25;;;31.08;19.85
68525;BME280;55524;51.380;13.372;2022-08-11T15:19:18;100807.66;;;32.04;20.43
68525;BME280;55524;51.380;13.372;2022-08-11T15:21:46;100794.16;;;31.88;19.42
68525;BME280;55524;51.380;13.372;2022-08-11T15:24:31;100781.34;;;31.36;19.21
68525;BME280;55524;51.380;13.372;2022-08-11T15:27:00;100788.16;;;31.32;19.86
68525;BME280;55524;51.380;13.372;2022-08-11T15:29:47;100802.41;;;30.42;19.83
68525;BME280;55524;51.380;13.372;2022-08-11T15:32:33;100792.91;;;31.38;19.94
68525;BME280;55524;51.380;13.372;2022-08-11T15:35:18;100787.00;;;30.49;19.77
68525;BME280;55524;51.380;13.372;2022-08-11T15:38:03;100793.81;;;30.06;20.38
68525;BME280;55524;51.380;13.372;2022-08-11T15:40:34;100794.97;;;30.90;20.66
68525;BME280;55524;51.380;13.372;2022-08-11T15:46:31;100787.00;;;30.80;19.55
68525;BME280;55524;51.380;13.372;2022-08-11T15:48:59;100788.59;;;30.35;19.78
68525;BME280;55524;51.380;13.372;2022-08-11T15:51:34;100792.19;;;31.21;20.30
68525;BME280;55524;51.380;13.372;2022-08-11T15:54:04;100787.50;;;31.07;19.78
68525;BME280;55524;51.380;13.372;2022-08-11T15:56:34;100790.91;;;31.32;19.65
68525;BME280;55524;51.380;13.372;2022-08-11T15:59:01;100785.97;;;31.27;19.55
68525;BME280;55524;51.380;13.372;2022-08-11T16:01:46;100773.88;;;31.30;19.43
68525;BME280;55524;51.380;13.372;2022-08-11T16:04:32;100775.22;;;31.26;18.95
68525;BME280;55524;51.380;13.372;2022-08-11T16:09:35;100782.88;;;30.14;20.62
68525;BME280;55524;51.380;13.372;2022-08-11T16:12:03;100785.88;;;30.67;21.08
68525;BME280;55524;51.380;13.372;2022-08-11T16:14:30;100790.66;;;30.65;21.88
68525;BME280;55524;51.380;13.372;2022-08-11T16:17:16;100778.94;;;30.87;20.65
68525;BME280;55524;51.380;13.372;2022-08-11T16:19:43;100773.75;;;30.69;20.65
68525;BME280;55524;51.380;13.372;2022-08-11T16:22:12;100769.50;;;30.67;20.62
68525;BME280;55524;51.380;13.372;2022-08-11T16:24:43;100774.41;;;30.40;21.43
68525;BME280;55524;51.380;13.372;2022-08-11T16:27:10;100772.47;;;30.57;21.16
68525;BME280;55524;51.380;13.372;2022-08-11T16:29:43;100769.75;;;30.57;21.44
68525;BME280;55524;51.380;13.372;2022-08-11T16:32:11;100785.28;;;30.48;21.93
68525;BME280;55524;51.380;13.372;2022-08-11T16:34:44;100760.88;;;30.24;20.21
68525;BME280;55524;51.380;13.372;2022-08-11T16:37:30;100760.72;;;30.25;21.03
68525;BME280;55524;51.380;13.372;2022-08-11T16:40:16;100762.84;;;30.69;21.58
68525;BME280;55524;51.380;13.372;2022-08-11T16:42:44;100762.34;;;30.34;21.37
68525;BME280;55524;51.380;13.372;2022-08-11T16:45:29;100772.88;;;30.69;21.74
68525;BME280;55524;51.380;13.372;2022-08-11T16:48:35;100771.53;;;30.42;22.60
68525;BME280;55524;51.380;13.372;2022-08-11T16:51:00;100779.91;;;30.32;23.58
68525;BME280;55524;51.380;13.372;2022-08-11T16:53:27;100782.38;;;30.10;23.45
68525;BME280;55524;51.380;13.372;2022-08-11T16:55:54;100771.13;;;30.22;22.72
68525;BME280;55524;51.380;13.372;2022-08-11T16:58:20;100781.69;;;30.17;22.28
68525;BME280;55524;51.380;13.372;2022-08-11T17:01:07;100776.13;;;29.85;23.11
68525;BME280;55524;51.380;13.372;2022-08-11T17:03:34;100775.25;;;29.93;22.29
68525;BME280;55524;51.380;13.372;2022-08-11T17:06:23;100770.91;;;29.68;21.86
68525;BME280;55524;51.380;13.372;2022-08-11T17:09:07;100767.16;;;29.44;22.04
68525;BME280;55524;51.380;13.372;2022-08-11T17:11:55;100768.19;;;29.68;22.06
68525;BME280;55524;51.380;13.372;2022-08-11T17:17:56;100774.47;;;28.95;23.34
68525;BME280;55524;51.380;13.372;2022-08-11T17:20:27;100773.59;;;28.94;23.63
68525;BME280;55524;51.380;13.372;2022-08-11T17:22:53;100776.72;;;29.07;23.80
68525;BME280;55524;51.380;13.372;2022-08-11T17:25:39;100768.84;;;28.88;23.01
68525;BME280;55524;51.380;13.372;2022-08-11T17:28:05;100772.25;;;28.90;23.86
68525;BME280;55524;51.380;13.372;2022-08-11T17:30:32;100776.75;;;28.40;23.53
68525;BME280;55524;51.380;13.372;2022-08-11T17:33:17;100781.94;;;28.34;24.70
68525;BME280;55524;51.380;13.372;2022-08-11T17:36:03;100777.25;;;28.10;24.51